Terminal Aerodrome Forecast
Issued by NWS

Home | Current Version | Previous Version | Text Only | Print | Product List | Glossary On
Versions: 1 2 3 4 5 6 7 8 9 10 11 12 13 14 15 16 17 18 19 20 21 22 23 24 25 26
000
FTUS41 KBUF 280500
TAFIAG
TAF
KIAG 280531Z 2806/2906 02005KT P6SM BKN005 OVC090
     FM280900 02014G20KT 2SM +RA BKN007 OVC040
     FM281500 36013KT P6SM VCSH BKN035 OVC250
     FM281800 34013KT P6SM BKN200
     FM290400 31009KT P6SM SCT050=

USA.gov is the U.S. government's official web portal to all federal, state and local government web resources and services.